sensor_id;sensor_type;location;lat;lon;timestamp;P1;durP1;ratioP1;P2;durP2;ratioP2
13356;SDS011;6747;56.456;-3.120;2024-02-23T00:01:04;3.88;;;1.08;;
13356;SDS011;6747;56.456;-3.120;2024-02-23T00:03:34;1.20;;;1.10;;
13356;SDS011;6747;56.456;-3.120;2024-02-23T00:06:05;1.70;;;0.90;;
13356;SDS011;6747;56.456;-3.120;2024-02-23T00:08:34;1.50;;;0.98;;
13356;SDS011;6747;56.456;-3.120;2024-02-23T00:11:03;1.10;;;1.00;;
13356;SDS011;6747;56.456;-3.120;2024-02-23T00:13:31;0.80;;;0.80;;
13356;SDS011;6747;56.456;-3.120;2024-02-23T00:16:02;1.38;;;1.13;;
13356;SDS011;6747;56.456;-3.120;2024-02-23T00:18:30;1.27;;;0.85;;
13356;SDS011;6747;56.456;-3.120;2024-02-23T00:21:02;0.90;;;0.80;;
13356;SDS011;6747;56.456;-3.120;2024-02-23T00:23:30;1.73;;;0.93;;
13356;SDS011;6747;56.456;-3.120;2024-02-23T00:26:01;1.27;;;0.80;;
13356;SDS011;6747;56.456;-3.120;2024-02-23T00:28:31;2.03;;;1.38;;
13356;SDS011;6747;56.456;-3.120;2024-02-23T00:31:01;1.80;;;1.10;;
13356;SDS011;6747;56.456;-3.120;2024-02-23T00:33:31;2.10;;;0.95;;
13356;SDS011;6747;56.456;-3.120;2024-02-23T00:36:05;1.02;;;0.93;;
13356;SDS011;6747;56.456;-3.120;2024-02-23T00:38:32;1.95;;;1.17;;
13356;SDS011;6747;56.456;-3.120;2024-02-23T00:41:03;1.17;;;1.08;;
13356;SDS011;6747;56.456;-3.120;2024-02-23T00:43:37;0.95;;;0.80;;
13356;SDS011;6747;56.456;-3.120;2024-02-23T00:46:05;1.40;;;1.17;;
13356;SDS011;6747;56.456;-3.120;2024-02-23T00:48:32;1.00;;;1.00;;
13356;SDS011;6747;56.456;-3.120;2024-02-23T00:51:05;1.20;;;1.10;;
13356;SDS011;6747;56.456;-3.120;2024-02-23T00:53:32;1.30;;;1.25;;
13356;SDS011;6747;56.456;-3.120;2024-02-23T00:56:02;1.80;;;1.00;;
13356;SDS011;6747;56.456;-3.120;2024-02-23T00:58:32;1.70;;;1.60;;
13356;SDS011;6747;56.456;-3.120;2024-02-23T01:01:02;1.50;;;1.40;;
13356;SDS011;6747;56.456;-3.120;2024-02-23T01:03:33;3.97;;;1.30;;
13356;SDS011;6747;56.456;-3.120;2024-02-23T01:06:06;2.78;;;1.33;;
13356;SDS011;6747;56.456;-3.120;2024-02-23T01:08:33;2.88;;;1.48;;
13356;SDS011;6747;56.456;-3.120;2024-02-23T01:11:06;1.38;;;1.27;;
13356;SDS011;6747;56.456;-3.120;2024-02-23T01:13:33;1.70;;;1.50;;
13356;SDS011;6747;56.456;-3.120;2024-02-23T01:16:03;4.03;;;2.15;;
13356;SDS011;6747;56.456;-3.120;2024-02-23T01:18:33;1.75;;;1.63;;
13356;SDS011;6747;56.456;-3.120;2024-02-23T01:21:04;2.00;;;1.90;;
13356;SDS011;6747;56.456;-3.120;2024-02-23T01:23:33;3.25;;;1.98;;
13356;SDS011;6747;56.456;-3.120;2024-02-23T01:26:01;3.03;;;1.80;;
13356;SDS011;6747;56.456;-3.120;2024-02-23T01:28:28;1.85;;;1.70;;
13356;SDS011;6747;56.456;-3.120;2024-02-23T01:30:56;2.20;;;2.00;;
13356;SDS011;6747;56.456;-3.120;2024-02-23T01:33:23;2.70;;;2.10;;
13356;SDS011;6747;56.456;-3.120;2024-02-23T01:35:51;2.00;;;1.90;;
13356;SDS011;6747;56.456;-3.120;2024-02-23T01:38:20;2.22;;;2.00;;
13356;SDS011;6747;56.456;-3.120;2024-02-23T01:40:49;2.50;;;2.30;;
13356;SDS011;6747;56.456;-3.120;2024-02-23T01:43:16;2.78;;;2.25;;
13356;SDS011;6747;56.456;-3.120;2024-02-23T01:45:44;2.25;;;1.98;;
13356;SDS011;6747;56.456;-3.120;2024-02-23T01:48:12;2.80;;;2.17;;
13356;SDS011;6747;56.456;-3.120;2024-02-23T01:50:39;2.42;;;2.00;;
13356;SDS011;6747;56.456;-3.120;2024-02-23T01:53:07;4.85;;;2.13;;
13356;SDS011;6747;56.456;-3.120;2024-02-23T01:55:36;2.22;;;2.03;;
13356;SDS011;6747;56.456;-3.120;2024-02-23T01:58:07;5.05;;;2.20;;
13356;SDS011;6747;56.456;-3.120;2024-02-23T02:00:40;4.28;;;2.03;;
13356;SDS011;6747;56.456;-3.120;2024-02-23T02:03:11;2.00;;;1.90;;
13356;SDS011;6747;56.456;-3.120;2024-02-23T02:05:41;3.53;;;2.08;;
13356;SDS011;6747;56.456;-3.120;2024-02-23T02:08:10;3.63;;;2.20;;
13356;SDS011;6747;56.456;-3.120;2024-02-23T02:10:39;3.65;;;1.80;;
13356;SDS011;6747;56.456;-3.120;2024-02-23T02:13:07;2.25;;;1.70;;
13356;SDS011;6747;56.456;-3.120;2024-02-23T02:15:38;2.30;;;2.00;;
13356;SDS011;6747;56.456;-3.120;2024-02-23T02:18:09;2.00;;;1.50;;
13356;SDS011;6747;56.456;-3.120;2024-02-23T02:20:37;1.98;;;1.77;;
13356;SDS011;6747;56.456;-3.120;2024-02-23T02:23:07;2.10;;;1.90;;
13356;SDS011;6747;56.456;-3.120;2024-02-23T02:25:39;2.13;;;1.90;;
13356;SDS011;6747;56.456;-3.120;2024-02-23T02:28:06;1.88;;;1.77;;
13356;SDS011;6747;56.456;-3.120;2024-02-23T02:30:34;1.70;;;1.60;;
13356;SDS011;6747;56.456;-3.120;2024-02-23T02:33:02;1.55;;;1.45;;
13356;SDS011;6747;56.456;-3.120;2024-02-23T02:35:29;2.20;;;1.80;;
13356;SDS011;6747;56.456;-3.120;2024-02-23T02:37:57;1.98;;;1.85;;
13356;SDS011;6747;56.456;-3.120;2024-02-23T02:40:24;2.45;;;2.03;;
13356;SDS011;6747;56.456;-3.120;2024-02-23T02:42:53;2.13;;;1.80;;
13356;SDS011;6747;56.456;-3.120;2024-02-23T02:45:21;1.92;;;1.80;;
13356;SDS011;6747;56.456;-3.120;2024-02-23T02:47:49;2.20;;;2.00;;
13356;SDS011;6747;56.456;-3.120;2024-02-23T02:50:16;2.15;;;1.60;;
13356;SDS011;6747;56.456;-3.120;2024-02-23T02:52:44;1.80;;;1.70;;
13356;SDS011;6747;56.456;-3.120;2024-02-23T02:55:12;5.22;;;1.48;;
13356;SDS011;6747;56.456;-3.120;2024-02-23T02:57:40;2.83;;;1.70;;
13356;SDS011;6747;56.456;-3.120;2024-02-23T03:00:13;1.58;;;1.48;;
13356;SDS011;6747;56.456;-3.120;2024-02-23T03:02:41;2.15;;;1.75;;
13356;SDS011;6747;56.456;-3.120;2024-02-23T03:05:08;2.30;;;1.55;;
13356;SDS011;6747;56.456;-3.120;2024-02-23T03:07:36;1.48;;;1.40;;
13356;SDS011;6747;56.456;-3.120;2024-02-23T03:10:04;1.50;;;1.40;;
13356;SDS011;6747;56.456;-3.120;2024-02-23T03:12:31;1.30;;;1.20;;
13356;SDS011;6747;56.456;-3.120;2024-02-23T03:14:59;1.48;;;1.38;;
13356;SDS011;6747;56.456;-3.120;2024-02-23T03:17:29;1.20;;;1.20;;
13356;SDS011;6747;56.456;-3.120;2024-02-23T03:19:58;3.70;;;1.52;;
13356;SDS011;6747;56.456;-3.120;2024-02-23T03:22:25;1.10;;;1.10;;
13356;SDS011;6747;56.456;-3.120;2024-02-23T03:24:53;1.88;;;1.77;;
13356;SDS011;6747;56.456;-3.120;2024-02-23T03:27:21;1.45;;;1.27;;
13356;SDS011;6747;56.456;-3.120;2024-02-23T03:29:54;1.60;;;1.50;;
13356;SDS011;6747;56.456;-3.120;2024-02-23T03:32:22;2.47;;;1.35;;
13356;SDS011;6747;56.456;-3.120;2024-02-23T03:34:51;1.58;;;1.15;;
13356;SDS011;6747;56.456;-3.120;2024-02-23T03:37:18;1.05;;;1.00;;
13356;SDS011;6747;56.456;-3.120;2024-02-23T03:39:45;1.20;;;1.10;;
13356;SDS011;6747;56.456;-3.120;2024-02-23T03:42:17;1.30;;;0.98;;
13356;SDS011;6747;56.456;-3.120;2024-02-23T03:44:45;0.80;;;0.80;;
13356;SDS011;6747;56.456;-3.120;2024-02-23T03:47:12;0.90;;;0.90;;
13356;SDS011;6747;56.456;-3.120;2024-02-23T03:49:42;1.15;;;0.95;;
13356;SDS011;6747;56.456;-3.120;2024-02-23T03:52:14;1.45;;;0.95;;
13356;SDS011;6747;56.456;-3.120;2024-02-23T03:54:44;0.55;;;0.55;;
13356;SDS011;6747;56.456;-3.120;2024-02-23T03:57:11;0.88;;;0.63;;
13356;SDS011;6747;56.456;-3.120;2024-02-23T03:59:39;1.15;;;0.80;;
13356;SDS011;6747;56.456;-3.120;2024-02-23T04:02:06;0.77;;;0.77;;
13356;SDS011;6747;56.456;-3.120;2024-02-23T04:04:34;1.25;;;0.73;;
13356;SDS011;6747;56.456;-3.120;2024-02-23T04:07:01;1.85;;;0.93;;
13356;SDS011;6747;56.456;-3.120;2024-02-23T04:09:30;0.70;;;0.70;;
13356;SDS011;6747;56.456;-3.120;2024-02-23T04:11:58;1.85;;;0.75;;
13356;SDS011;6747;56.456;-3.120;2024-02-23T04:14:25;0.82;;;0.82;;
13356;SDS011;6747;56.456;-3.120;2024-02-23T04:16:53;0.65;;;0.65;;
13356;SDS011;6747;56.456;-3.120;2024-02-23T04:19:20;1.42;;;0.60;;
13356;SDS011;6747;56.456;-3.120;2024-02-23T04:21:47;0.60;;;0.60;;
13356;SDS011;6747;56.456;-3.120;2024-02-23T04:24:15;0.50;;;0.50;;
13356;SDS011;6747;56.456;-3.120;2024-02-23T04:26:47;0.40;;;0.40;;
13356;SDS011;6747;56.456;-3.120;2024-02-23T04:29:15;0.52;;;0.52;;
13356;SDS011;6747;56.456;-3.120;2024-02-23T04:31:46;0.40;;;0.40;;
13356;SDS011;6747;56.456;-3.120;2024-02-23T04:34:18;0.43;;;0.43;;
13356;SDS011;6747;56.456;-3.120;2024-02-23T04:36:45;0.30;;;0.30;;
13356;SDS011;6747;56.456;-3.120;2024-02-23T04:39:14;0.32;;;0.32;;
13356;SDS011;6747;56.456;-3.120;2024-02-23T04:41:41;0.38;;;0.38;;
13356;SDS011;6747;56.456;-3.120;2024-02-23T04:44:10;0.40;;;0.40;;
13356;SDS011;6747;56.456;-3.120;2024-02-23T04:46:38;0.40;;;0.40;;
13356;SDS011;6747;56.456;-3.120;2024-02-23T04:49:05;0.38;;;0.30;;
13356;SDS011;6747;56.456;-3.120;2024-02-23T04:51:33;0.30;;;0.30;;
13356;SDS011;6747;56.456;-3.120;2024-02-23T04:54:00;0.60;;;0.30;;
13356;SDS011;6747;56.456;-3.120;2024-02-23T04:56:28;0.30;;;0.30;;
13356;SDS011;6747;56.456;-3.120;2024-02-23T04:58:56;0.30;;;0.30;;
13356;SDS011;6747;56.456;-3.120;2024-02-23T05:01:25;0.40;;;0.40;;
13356;SDS011;6747;56.456;-3.120;2024-02-23T05:03:52;0.20;;;0.20;;
13356;SDS011;6747;56.456;-3.120;2024-02-23T05:06:20;0.30;;;0.30;;
13356;SDS011;6747;56.456;-3.120;2024-02-23T05:08:47;0.40;;;0.40;;
13356;SDS011;6747;56.456;-3.120;2024-02-23T05:11:15;0.50;;;0.50;;
13356;SDS011;6747;56.456;-3.120;2024-02-23T05:13:43;0.30;;;0.30;;
13356;SDS011;6747;56.456;-3.120;2024-02-23T05:16:11;0.28;;;0.28;;
13356;SDS011;6747;56.456;-3.120;2024-02-23T05:18:40;0.35;;;0.30;;
13356;SDS011;6747;56.456;-3.120;2024-02-23T05:21:08;0.43;;;0.40;;
13356;SDS011;6747;56.456;-3.120;2024-02-23T05:23:36;0.30;;;0.30;;
13356;SDS011;6747;56.456;-3.120;2024-02-23T05:26:03;0.38;;;0.38;;
13356;SDS011;6747;56.456;-3.120;2024-02-23T05:28:31;0.40;;;0.40;;
13356;SDS011;6747;56.456;-3.120;2024-02-23T05:30:58;0.30;;;0.30;;
13356;SDS011;6747;56.456;-3.120;2024-02-23T05:33:26;0.30;;;0.20;;
13356;SDS011;6747;56.456;-3.120;2024-02-23T05:35:55;0.38;;;0.38;;
13356;SDS011;6747;56.456;-3.120;2024-02-23T05:38:23;0.25;;;0.25;;
13356;SDS011;6747;56.456;-3.120;2024-02-23T05:40:52;0.30;;;0.30;;
13356;SDS011;6747;56.456;-3.120;2024-02-23T05:43:19;1.00;;;0.30;;
13356;SDS011;6747;56.456;-3.120;2024-02-23T05:45:48;0.70;;;0.43;;
13356;SDS011;6747;56.456;-3.120;2024-02-23T05:48:15;0.50;;;0.50;;
13356;SDS011;6747;56.456;-3.120;2024-02-23T05:50:44;0.38;;;0.38;;
13356;SDS011;6747;56.456;-3.120;2024-02-23T05:53:13;0.40;;;0.40;;
13356;SDS011;6747;56.456;-3.120;2024-02-23T05:55:40;0.30;;;0.30;;
13356;SDS011;6747;56.456;-3.120;2024-02-23T05:58:08;0.55;;;0.50;;
13356;SDS011;6747;56.456;-3.120;2024-02-23T06:00:35;0.60;;;0.60;;
13356;SDS011;6747;56.456;-3.120;2024-02-23T06:03:04;0.60;;;0.50;;
13356;SDS011;6747;56.456;-3.120;2024-02-23T06:05:31;0.40;;;0.40;;
13356;SDS011;6747;56.456;-3.120;2024-02-23T06:07:59;0.93;;;0.60;;
13356;SDS011;6747;56.456;-3.120;2024-02-23T06:10:28;0.93;;;0.47;;
13356;SDS011;6747;56.456;-3.120;2024-02-23T06:12:55;0.73;;;0.50;;
13356;SDS011;6747;56.456;-3.120;2024-02-23T06:15:23;0.40;;;0.40;;
13356;SDS011;6747;56.456;-3.120;2024-02-23T06:17:50;0.35;;;0.35;;
13356;SDS011;6747;56.456;-3.120;2024-02-23T06:20:20;0.38;;;0.38;;
13356;SDS011;6747;56.456;-3.120;2024-02-23T06:22:48;0.40;;;0.40;;
13356;SDS011;6747;56.456;-3.120;2024-02-23T06:25:16;0.50;;;0.50;;
13356;SDS011;6747;56.456;-3.120;2024-02-23T06:27:45;0.40;;;0.40;;
13356;SDS011;6747;56.456;-3.120;2024-02-23T06:30:13;0.40;;;0.40;;
13356;SDS011;6747;56.456;-3.120;2024-02-23T06:32:40;1.10;;;1.00;;
13356;SDS011;6747;56.456;-3.120;2024-02-23T06:35:09;0.60;;;0.60;;
13356;SDS011;6747;56.456;-3.120;2024-02-23T06:37:37;0.40;;;0.40;;
13356;SDS011;6747;56.456;-3.120;2024-02-23T06:40:05;0.60;;;0.60;;
13356;SDS011;6747;56.456;-3.120;2024-02-23T06:42:33;0.95;;;0.60;;
13356;SDS011;6747;56.456;-3.120;2024-02-23T06:45:02;0.60;;;0.60;;
13356;SDS011;6747;56.456;-3.120;2024-02-23T06:47:30;0.50;;;0.50;;
13356;SDS011;6747;56.456;-3.120;2024-02-23T06:49:57;0.88;;;0.88;;
13356;SDS011;6747;56.456;-3.120;2024-02-23T06:52:26;0.80;;;0.52;;
13356;SDS011;6747;56.456;-3.120;2024-02-23T06:54:53;0.50;;;0.50;;
13356;SDS011;6747;56.456;-3.120;2024-02-23T06:57:24;0.50;;;0.50;;
13356;SDS011;6747;56.456;-3.120;2024-02-23T06:59:52;0.77;;;0.77;;
13356;SDS011;6747;56.456;-3.120;2024-02-23T07:02:21;0.55;;;0.55;;
13356;SDS011;6747;56.456;-3.120;2024-02-23T07:04:48;0.57;;;0.57;;
13356;SDS011;6747;56.456;-3.120;2024-02-23T07:07:16;0.57;;;0.57;;
13356;SDS011;6747;56.456;-3.120;2024-02-23T07:09:44;0.88;;;0.60;;
13356;SDS011;6747;56.456;-3.120;2024-02-23T07:12:11;0.55;;;0.50;;
13356;SDS011;6747;56.456;-3.120;2024-02-23T07:14:39;0.50;;;0.50;;
13356;SDS011;6747;56.456;-3.120;2024-02-23T07:17:07;0.47;;;0.47;;
13356;SDS011;6747;56.456;-3.120;2024-02-23T07:19:36;0.63;;;0.63;;
13356;SDS011;6747;56.456;-3.120;2024-02-23T07:22:04;1.33;;;0.63;;
13356;SDS011;6747;56.456;-3.120;2024-02-23T07:24:31;0.68;;;0.50;;
13356;SDS011;6747;56.456;-3.120;2024-02-23T07:26:59;0.40;;;0.40;;
13356;SDS011;6747;56.456;-3.120;2024-02-23T07:29:29;1.60;;;0.80;;
13356;SDS011;6747;56.456;-3.120;2024-02-23T07:32:00;0.55;;;0.55;;
13356;SDS011;6747;56.456;-3.120;2024-02-23T07:34:27;0.57;;;0.57;;
13356;SDS011;6747;56.456;-3.120;2024-02-23T07:36:59;1.27;;;0.77;;
13356;SDS011;6747;56.456;-3.120;2024-02-23T07:39:26;0.75;;;0.75;;
13356;SDS011;6747;56.456;-3.120;2024-02-23T07:41:54;0.60;;;0.60;;
13356;SDS011;6747;56.456;-3.120;2024-02-23T07:44:21;0.80;;;0.80;;
13356;SDS011;6747;56.456;-3.120;2024-02-23T07:46:50;0.90;;;0.80;;
13356;SDS011;6747;56.456;-3.120;2024-02-23T07:49:20;1.23;;;0.85;;
13356;SDS011;6747;56.456;-3.120;2024-02-23T07:51:48;1.23;;;0.93;;
13356;SDS011;6747;56.456;-3.120;2024-02-23T07:54:16;0.60;;;0.60;;
13356;SDS011;6747;56.456;-3.120;2024-02-23T07:56:44;0.63;;;0.60;;
13356;SDS011;6747;56.456;-3.120;2024-02-23T07:59:11;0.68;;;0.60;;
13356;SDS011;6747;56.456;-3.120;2024-02-23T08:01:39;1.00;;;0.50;;
13356;SDS011;6747;56.456;-3.120;2024-02-23T08:04:06;0.52;;;0.52;;
13356;SDS011;6747;56.456;-3.120;2024-02-23T08:06:34;0.82;;;0.70;;
13356;SDS011;6747;56.456;-3.120;2024-02-23T08:09:01;0.82;;;0.82;;
13356;SDS011;6747;56.456;-3.120;2024-02-23T08:11:31;0.60;;;0.60;;
13356;SDS011;6747;56.456;-3.120;2024-02-23T08:13:59;0.70;;;0.70;;
13356;SDS011;6747;56.456;-3.120;2024-02-23T08:16:28;0.80;;;0.80;;
13356;SDS011;6747;56.456;-3.120;2024-02-23T08:18:58;1.17;;;0.73;;
13356;SDS011;6747;56.456;-3.120;2024-02-23T08:21:29;0.77;;;0.77;;
13356;SDS011;6747;56.456;-3.120;2024-02-23T08:23:59;0.88;;;0.73;;
13356;SDS011;6747;56.456;-3.120;2024-02-23T08:26:27;1.00;;;0.63;;
13356;SDS011;6747;56.456;-3.120;2024-02-23T08:29:02;0.77;;;0.77;;
13356;SDS011;6747;56.456;-3.120;2024-02-23T08:31:33;1.75;;;0.70;;
13356;SDS011;6747;56.456;-3.120;2024-02-23T08:34:01;1.70;;;0.80;;
13356;SDS011;6747;56.456;-3.120;2024-02-23T08:36:28;1.05;;;0.47;;
13356;SDS011;6747;56.456;-3.120;2024-02-23T08:38:58;0.57;;;0.57;;
13356;SDS011;6747;56.456;-3.120;2024-02-23T08:41:28;0.65;;;0.65;;
13356;SDS011;6747;56.456;-3.120;2024-02-23T08:43:56;0.73;;;0.70;;
13356;SDS011;6747;56.456;-3.120;2024-02-23T08:46:26;0.73;;;0.70;;
13356;SDS011;6747;56.456;-3.120;2024-02-23T08:48:53;0.90;;;0.57;;
13356;SDS011;6747;56.456;-3.120;2024-02-23T08:51:21;0.80;;;0.50;;
13356;SDS011;6747;56.456;-3.120;2024-02-23T08:53:48;0.55;;;0.55;;
13356;SDS011;6747;56.456;-3.120;2024-02-23T08:56:16;0.88;;;0.80;;
13356;SDS011;6747;56.456;-3.120;2024-02-23T08:58:43;0.77;;;0.77;;
13356;SDS011;6747;56.456;-3.120;2024-02-23T09:01:11;0.63;;;0.63;;
13356;SDS011;6747;56.456;-3.120;2024-02-23T09:03:40;0.85;;;0.80;;
13356;SDS011;6747;56.456;-3.120;2024-02-23T09:06:08;0.60;;;0.60;;
13356;SDS011;6747;56.456;-3.120;2024-02-23T09:08:35;0.68;;;0.68;;
13356;SDS011;6747;56.456;-3.120;2024-02-23T09:11:03;1.35;;;0.57;;
13356;SDS011;6747;56.456;-3.120;2024-02-23T09:13:31;0.43;;;0.40;;
13356;SDS011;6747;56.456;-3.120;2024-02-23T09:16:01;0.47;;;0.47;;
13356;SDS011;6747;56.456;-3.120;2024-02-23T09:18:33;0.55;;;0.50;;
13356;SDS011;6747;56.456;-3.120;2024-02-23T09:21:06;0.45;;;0.45;;
13356;SDS011;6747;56.456;-3.120;2024-02-23T09:23:36;0.50;;;0.50;;
13356;SDS011;6747;56.456;-3.120;2024-02-23T09:26:08;0.60;;;0.60;;
13356;SDS011;6747;56.456;-3.120;2024-02-23T09:28:37;0.40;;;0.40;;
13356;SDS011;6747;56.456;-3.120;2024-02-23T09:31:06;1.20;;;0.40;;
13356;SDS011;6747;56.456;-3.120;2024-02-23T09:33:34;0.50;;;0.50;;
13356;SDS011;6747;56.456;-3.120;2024-02-23T09:36:02;0.65;;;0.50;;
13356;SDS011;6747;56.456;-3.120;2024-02-23T09:38:36;0.55;;;0.47;;
13356;SDS011;6747;56.456;-3.120;2024-02-23T09:41:07;0.47;;;0.45;;
13356;SDS011;6747;56.456;-3.120;2024-02-23T09:43:39;1.50;;;0.60;;
13356;SDS011;6747;56.456;-3.120;2024-02-23T09:46:06;1.20;;;0.50;;
13356;SDS011;6747;56.456;-3.120;2024-02-23T09:48:35;0.50;;;0.50;;
13356;SDS011;6747;56.456;-3.120;2024-02-23T09:51:03;0.40;;;0.40;;
13356;SDS011;6747;56.456;-3.120;2024-02-23T09:53:32;0.60;;;0.60;;
13356;SDS011;6747;56.456;-3.120;2024-02-23T09:56:02;0.93;;;0.50;;
13356;SDS011;6747;56.456;-3.120;2024-02-23T09:58:31;1.20;;;0.52;;
13356;SDS011;6747;56.456;-3.120;2024-02-23T10:01:02;0.60;;;0.40;;
13356;SDS011;6747;56.456;-3.120;2024-02-23T10:03:32;0.45;;;0.45;;
13356;SDS011;6747;56.456;-3.120;2024-02-23T10:05:59;2.40;;;0.68;;
13356;SDS011;6747;56.456;-3.120;2024-02-23T10:08:28;0.50;;;0.50;;
13356;SDS011;6747;56.456;-3.120;2024-02-23T10:10:55;0.73;;;0.40;;
13356;SDS011;6747;56.456;-3.120;2024-02-23T10:13:25;0.50;;;0.50;;
13356;SDS011;6747;56.456;-3.120;2024-02-23T10:15:52;0.50;;;0.50;;
13356;SDS011;6747;56.456;-3.120;2024-02-23T10:18:20;0.90;;;0.80;;
13356;SDS011;6747;56.456;-3.120;2024-02-23T10:20:48;1.65;;;0.60;;
13356;SDS011;6747;56.456;-3.120;2024-02-23T10:23:17;1.02;;;0.55;;
13356;SDS011;6747;56.456;-3.120;2024-02-23T10:25:46;1.23;;;0.50;;
13356;SDS011;6747;56.456;-3.120;2024-02-23T10:28:14;1.25;;;0.60;;
13356;SDS011;6747;56.456;-3.120;2024-02-23T10:30:43;1.45;;;0.68;;
13356;SDS011;6747;56.456;-3.120;2024-02-23T10:36:00;1.27;;;0.70;;
13356;SDS011;6747;56.456;-3.120;2024-02-23T10:38:40;0.63;;;0.63;;
13356;SDS011;6747;56.456;-3.120;2024-02-23T10:41:15;1.17;;;0.57;;
13356;SDS011;6747;56.456;-3.120;2024-02-23T10:44:02;0.50;;;0.50;;
13356;SDS011;6747;56.456;-3.120;2024-02-23T10:46:42;1.30;;;0.40;;
13356;SDS011;6747;56.456;-3.120;2024-02-23T10:49:10;0.57;;;0.57;;
13356;SDS011;6747;56.456;-3.120;2024-02-23T10:51:41;0.65;;;0.50;;
13356;SDS011;6747;56.456;-3.120;2024-02-23T10:54:09;0.77;;;0.43;;
13356;SDS011;6747;56.456;-3.120;2024-02-23T10:56:37;0.65;;;0.50;;
13356;SDS011;6747;56.456;-3.120;2024-02-23T10:59:06;0.47;;;0.47;;
13356;SDS011;6747;56.456;-3.120;2024-02-23T11:01:36;0.50;;;0.50;;
13356;SDS011;6747;56.456;-3.120;2024-02-23T11:04:08;0.73;;;0.57;;
13356;SDS011;6747;56.456;-3.120;2024-02-23T11:06:36;0.40;;;0.40;;
13356;SDS011;6747;56.456;-3.120;2024-02-23T11:09:06;0.43;;;0.30;;
13356;SDS011;6747;56.456;-3.120;2024-02-23T11:11:37;1.00;;;0.40;;
13356;SDS011;6747;56.456;-3.120;2024-02-23T11:14:07;0.88;;;0.50;;
13356;SDS011;6747;56.456;-3.120;2024-02-23T11:16:38;1.00;;;0.35;;
13356;SDS011;6747;56.456;-3.120;2024-02-23T11:19:09;1.45;;;0.60;;
13356;SDS011;6747;56.456;-3.120;2024-02-23T11:21:42;0.73;;;0.52;;
13356;SDS011;6747;56.456;-3.120;2024-02-23T11:24:15;0.30;;;0.30;;
13356;SDS011;6747;56.456;-3.120;2024-02-23T11:26:42;0.30;;;0.30;;
13356;SDS011;6747;56.456;-3.120;2024-02-23T11:29:11;0.30;;;0.30;;
13356;SDS011;6747;56.456;-3.120;2024-02-23T11:31:44;0.95;;;0.68;;
13356;SDS011;6747;56.456;-3.120;2024-02-23T11:34:15;0.32;;;0.32;;
13356;SDS011;6747;56.456;-3.120;2024-02-23T11:36:50;0.40;;;0.40;;
13356;SDS011;6747;56.456;-3.120;2024-02-23T11:39:19;1.15;;;0.38;;
13356;SDS011;6747;56.456;-3.120;2024-02-23T11:41:47;1.85;;;0.70;;
13356;SDS011;6747;56.456;-3.120;2024-02-23T11:44:15;0.50;;;0.50;;
13356;SDS011;6747;56.456;-3.120;2024-02-23T11:46:43;0.40;;;0.40;;
13356;SDS011;6747;56.456;-3.120;2024-02-23T11:49:16;0.82;;;0.50;;
13356;SDS011;6747;56.456;-3.120;2024-02-23T11:51:52;0.45;;;0.40;;
13356;SDS011;6747;56.456;-3.120;2024-02-23T11:54:34;1.77;;;0.90;;
13356;SDS011;6747;56.456;-3.120;2024-02-23T11:57:14;1.13;;;0.52;;
13356;SDS011;6747;56.456;-3.120;2024-02-23T11:59:45;0.65;;;0.65;;
13356;SDS011;6747;56.456;-3.120;2024-02-23T12:02:24;0.70;;;0.70;;
13356;SDS011;6747;56.456;-3.120;2024-02-23T12:04:54;1.73;;;0.50;;
13356;SDS011;6747;56.456;-3.120;2024-02-23T12:07:22;0.45;;;0.43;;
13356;SDS011;6747;56.456;-3.120;2024-02-23T12:09:51;1.35;;;0.60;;
13356;SDS011;6747;56.456;-3.120;2024-02-23T12:12:19;0.70;;;0.50;;
13356;SDS011;6747;56.456;-3.120;2024-02-23T12:14:47;1.20;;;0.60;;
13356;SDS011;6747;56.456;-3.120;2024-02-23T12:17:14;1.55;;;0.40;;
13356;SDS011;6747;56.456;-3.120;2024-02-23T12:19:42;0.50;;;0.50;;
13356;SDS011;6747;56.456;-3.120;2024-02-23T12:22:17;0.38;;;0.38;;
13356;SDS011;6747;56.456;-3.120;2024-02-23T12:24:53;2.30;;;0.75;;
13356;SDS011;6747;56.456;-3.120;2024-02-23T12:27:31;1.67;;;0.65;;
13356;SDS011;6747;56.456;-3.120;2024-02-23T12:33:21;0.73;;;0.57;;
13356;SDS011;6747;56.456;-3.120;2024-02-23T12:36:04;1.55;;;0.55;;
13356;SDS011;6747;56.456;-3.120;2024-02-23T12:38:33;1.20;;;0.68;;
13356;SDS011;6747;56.456;-3.120;2024-02-23T12:41:01;2.40;;;0.73;;
13356;SDS011;6747;56.456;-3.120;2024-02-23T12:43:29;1.45;;;0.63;;
13356;SDS011;6747;56.456;-3.120;2024-02-23T12:45:57;0.68;;;0.50;;
13356;SDS011;6747;56.456;-3.120;2024-02-23T12:48:27;0.60;;;0.40;;
13356;SDS011;6747;56.456;-3.120;2024-02-23T12:50:54;2.30;;;0.52;;
13356;SDS011;6747;56.456;-3.120;2024-02-23T12:53:34;1.90;;;0.60;;
13356;SDS011;6747;56.456;-3.120;2024-02-23T12:56:03;1.05;;;0.50;;
13356;SDS011;6747;56.456;-3.120;2024-02-23T12:58:30;0.65;;;0.57;;
13356;SDS011;6747;56.456;-3.120;2024-02-23T13:00:58;1.00;;;0.50;;
13356;SDS011;6747;56.456;-3.120;2024-02-23T13:03:26;1.35;;;1.00;;
13356;SDS011;6747;56.456;-3.120;2024-02-23T13:05:54;1.40;;;0.90;;
13356;SDS011;6747;56.456;-3.120;2024-02-23T13:08:22;1.80;;;1.23;;
13356;SDS011;6747;56.456;-3.120;2024-02-23T13:10:52;0.82;;;0.70;;
13356;SDS011;6747;56.456;-3.120;2024-02-23T13:13:20;1.70;;;0.60;;
13356;SDS011;6747;56.456;-3.120;2024-02-23T13:15:49;1.13;;;0.85;;
13356;SDS011;6747;56.456;-3.120;2024-02-23T13:18:17;1.05;;;0.70;;
13356;SDS011;6747;56.456;-3.120;2024-02-23T13:20:45;2.45;;;0.88;;
13356;SDS011;6747;56.456;-3.120;2024-02-23T13:23:14;1.20;;;0.47;;
13356;SDS011;6747;56.456;-3.120;2024-02-23T13:25:44;0.47;;;0.47;;
13356;SDS011;6747;56.456;-3.120;2024-02-23T13:28:16;1.27;;;0.50;;
13356;SDS011;6747;56.456;-3.120;2024-02-23T13:31:25;0.73;;;0.40;;
13356;SDS011;6747;56.456;-3.120;2024-02-23T13:33:53;0.52;;;0.38;;
13356;SDS011;6747;56.456;-3.120;2024-02-23T13:36:32;1.13;;;0.70;;
13356;SDS011;6747;56.456;-3.120;2024-02-23T13:39:00;1.38;;;0.47;;
13356;SDS011;6747;56.456;-3.120;2024-02-23T13:41:27;1.20;;;0.40;;
13356;SDS011;6747;56.456;-3.120;2024-02-23T13:43:57;0.30;;;0.30;;
13356;SDS011;6747;56.456;-3.120;2024-02-23T13:46:27;0.40;;;0.40;;
13356;SDS011;6747;56.456;-3.120;2024-02-23T13:49:02;0.60;;;0.60;;
13356;SDS011;6747;56.456;-3.120;2024-02-23T13:51:29;0.22;;;0.22;;
13356;SDS011;6747;56.456;-3.120;2024-02-23T13:53:56;0.30;;;0.30;;
13356;SDS011;6747;56.456;-3.120;2024-02-23T13:56:24;0.85;;;0.30;;
13356;SDS011;6747;56.456;-3.120;2024-02-23T13:58:52;0.52;;;0.40;;
13356;SDS011;6747;56.456;-3.120;2024-02-23T14:01:21;0.80;;;0.50;;
13356;SDS011;6747;56.456;-3.120;2024-02-23T14:03:52;0.30;;;0.30;;
13356;SDS011;6747;56.456;-3.120;2024-02-23T14:06:24;0.40;;;0.40;;
13356;SDS011;6747;56.456;-3.120;2024-02-23T14:08:52;1.65;;;0.30;;
13356;SDS011;6747;56.456;-3.120;2024-02-23T14:11:20;0.17;;;0.17;;
13356;SDS011;6747;56.456;-3.120;2024-02-23T14:13:48;0.30;;;0.30;;
13356;SDS011;6747;56.456;-3.120;2024-02-23T14:16:16;0.30;;;0.20;;
13356;SDS011;6747;56.456;-3.120;2024-02-23T14:18:46;0.20;;;0.20;;
13356;SDS011;6747;56.456;-3.120;2024-02-23T14:21:14;0.20;;;0.20;;
13356;SDS011;6747;56.456;-3.120;2024-02-23T14:23:43;0.25;;;0.25;;
13356;SDS011;6747;56.456;-3.120;2024-02-23T14:26:11;0.22;;;0.22;;
13356;SDS011;6747;56.456;-3.120;2024-02-23T14:28:38;0.47;;;0.47;;
13356;SDS011;6747;56.456;-3.120;2024-02-23T14:31:06;0.65;;;0.30;;
13356;SDS011;6747;56.456;-3.120;2024-02-23T14:33:33;0.60;;;0.60;;
13356;SDS011;6747;56.456;-3.120;2024-02-23T14:36:14;0.80;;;0.40;;
13356;SDS011;6747;56.456;-3.120;2024-02-23T14:38:51;0.98;;;0.88;;
13356;SDS011;6747;56.456;-3.120;2024-02-23T14:41:19;1.10;;;0.60;;
13356;SDS011;6747;56.456;-3.120;2024-02-23T14:43:50;0.50;;;0.50;;
13356;SDS011;6747;56.456;-3.120;2024-02-23T14:46:21;0.47;;;0.40;;
13356;SDS011;6747;56.456;-3.120;2024-02-23T14:48:52;0.30;;;0.30;;
13356;SDS011;6747;56.456;-3.120;2024-02-23T14:51:28;0.40;;;0.40;;
13356;SDS011;6747;56.456;-3.120;2024-02-23T14:54:06;0.40;;;0.40;;
13356;SDS011;6747;56.456;-3.120;2024-02-23T14:56:44;0.20;;;0.20;;
13356;SDS011;6747;56.456;-3.120;2024-02-23T14:59:12;1.15;;;0.40;;
13356;SDS011;6747;56.456;-3.120;2024-02-23T15:01:40;1.08;;;0.30;;
13356;SDS011;6747;56.456;-3.120;2024-02-23T15:04:08;0.82;;;0.40;;
13356;SDS011;6747;56.456;-3.120;2024-02-23T15:06:43;0.20;;;0.20;;